createdAt,value
2023-04-30T00:00:59.964Z,7.29
2023-04-30T00:02:00.513Z,7.25
2023-04-30T00:03:00.763Z,7.29
2023-04-30T00:04:01.149Z,7.28
2023-04-30T00:05:01.524Z,7.28
2023-04-30T00:06:01.774Z,7.3
2023-04-30T00:07:02.626Z,7.29
2023-04-30T00:08:02.764Z,7.29
2023-04-30T00:09:03.354Z,7.34
2023-04-30T00:10:03.741Z,7.33
2023-04-30T00:11:04.058Z,7.32
2023-04-30T00:12:04.781Z,7.33
2023-04-30T00:13:04.577Z,7.35
2023-04-30T00:14:04.898Z,7.35
2023-04-30T00:15:06.347Z,7.34
2023-04-30T00:16:06.267Z,7.31
2023-04-30T00:17:05.999Z,7.31
2023-04-30T00:18:06.593Z,7.31
2023-04-30T00:19:06.802Z,7.38
2023-04-30T00:20:08.114Z,7.38
2023-04-30T00:21:07.669Z,7.36
2023-04-30T00:22:08.438Z,7.3
2023-04-30T00:23:08.450Z,7.22
2023-04-30T00:24:08.860Z,7.24
2023-04-30T00:25:10.001Z,7.24
2023-04-30T00:26:09.587Z,7.22
2023-04-30T00:27:09.912Z,7.24
2023-04-30T00:28:10.268Z,7.29
2023-04-30T00:29:11.351Z,7.29
2023-04-30T00:30:12.127Z,7.27
2023-04-30T00:31:11.556Z,7.27
2023-04-30T00:32:12.092Z,7.22
2023-04-30T00:33:12.334Z,7.21
2023-04-30T00:34:12.548Z,7.2
2023-04-30T00:35:13.073Z,7.21
2023-04-30T00:36:13.344Z,7.21
2023-04-30T00:37:13.855Z,7.19
2023-04-30T00:38:14.283Z,7.15
2023-04-30T00:39:14.379Z,7.17
2023-04-30T00:40:15.412Z,7.17
2023-04-30T00:41:16.455Z,7.13
2023-04-30T00:42:15.639Z,7.11
2023-04-30T00:43:16.143Z,7.1
2023-04-30T00:44:16.456Z,7.08
2023-04-30T00:45:17.286Z,7.13
2023-04-30T00:46:17.613Z,7.16
2023-04-30T00:47:18.114Z,7.16
2023-04-30T00:48:18.957Z,7.1
2023-04-30T00:49:18.344Z,7.11
2023-04-30T00:50:18.685Z,7.16
2023-04-30T00:51:20.107Z,7.17
2023-04-30T00:52:19.705Z,7.17
2023-04-30T00:53:20.480Z,7.16
2023-04-30T00:54:21.028Z,7.14
2023-04-30T00:55:21.038Z,7.13
2023-04-30T00:56:21.174Z,7.14
2023-04-30T00:57:22.689Z,7.15
2023-04-30T00:58:22.500Z,7.16
2023-04-30T00:59:22.915Z,7.17
2023-04-30T01:00:22.717Z,7.13
2023-04-30T01:01:27.155Z,7.12
2023-04-30T01:02:24.917Z,7.15
2023-04-30T01:03:25.195Z,7.18
2023-04-30T01:04:26.227Z,7.14
2023-04-30T01:05:26.336Z,7.19
2023-04-30T01:06:26.544Z,7.2
2023-04-30T01:07:26.648Z,7.17
2023-04-30T01:08:26.896Z,7.12
2023-04-30T01:09:27.495Z,7.11
2023-04-30T01:10:32.609Z,7.12
2023-04-30T01:13:45.221Z,7.15
2023-04-30T01:19:53.379Z,7.16
2023-04-30T01:21:05.330Z,7.14
2023-04-30T01:22:04.529Z,7.17
2023-04-30T01:28:23.404Z,7.15
2023-04-30T01:29:24.538Z,7.17
2023-04-30T01:30:24.130Z,7.21
2023-04-30T01:31:24.577Z,7.19
2023-04-30T01:32:24.212Z,7.12
2023-04-30T01:33:24.087Z,7.14
2023-04-30T01:34:24.790Z,7.13
2023-04-30T01:57:32.873Z,7.23
2023-04-30T01:58:30.776Z,7.26
2023-04-30T01:59:34.769Z,7.25
2023-04-30T02:00:32.129Z,7.26
2023-04-30T02:01:33.498Z,7.29
2023-04-30T02:02:33.008Z,7.32
2023-04-30T02:03:33.617Z,7.31
2023-04-30T02:04:33.676Z,7.29
2023-04-30T02:05:34.315Z,7.3
2023-04-30T02:06:34.597Z,7.31
2023-04-30T02:08:36.508Z,7.41
2023-04-30T02:09:36.928Z,7.4
2023-04-30T02:10:37.304Z,7.36
2023-04-30T02:11:37.610Z,7.35
2023-04-30T02:12:38.597Z,7.36
2023-04-30T02:13:38.444Z,7.39
2023-04-30T02:14:38.627Z,7.36
2023-04-30T02:15:39.292Z,7.35
2023-04-30T02:16:39.530Z,7.34
2023-04-30T02:17:39.932Z,7.27
2023-04-30T02:18:40.236Z,7.29
2023-04-30T02:19:40.730Z,7.33
2023-04-30T02:20:41.161Z,7.33
2023-04-30T02:21:41.580Z,7.35
2023-04-30T02:22:41.943Z,7.39
2023-04-30T02:23:42.312Z,7.34
2023-04-30T02:24:42.524Z,7.31
2023-04-30T02:25:43.036Z,7.29
2023-04-30T02:26:43.352Z,7.25
2023-04-30T02:27:43.861Z,7.25
2023-04-30T02:28:44.088Z,7.24
2023-04-30T02:29:44.433Z,7.25
2023-04-30T02:30:45.114Z,7.3
2023-04-30T02:31:45.369Z,7.35
2023-04-30T02:32:45.768Z,7.36
2023-04-30T02:33:46.020Z,7.28
2023-04-30T02:34:46.360Z,7.29
2023-04-30T02:35:47.094Z,7.32
2023-04-30T02:36:47.204Z,7.3
2023-04-30T02:37:47.521Z,7.24
2023-04-30T02:38:47.931Z,7.3
2023-04-30T02:39:48.341Z,7.34
2023-04-30T02:40:48.715Z,7.33
2023-04-30T02:41:49.025Z,7.32
2023-04-30T02:42:49.494Z,7.33
2023-04-30T02:43:50.254Z,7.33
2023-04-30T02:44:50.232Z,7.33
2023-04-30T02:45:50.980Z,7.34
2023-04-30T02:46:51.270Z,7.35
2023-04-30T02:47:51.421Z,7.34
2023-04-30T02:48:52.512Z,7.29
2023-04-30T02:49:52.463Z,7.31
2023-04-30T02:50:52.619Z,7.32
2023-04-30T02:51:53.547Z,7.27
2023-04-30T02:52:53.456Z,7.2
2023-04-30T02:53:53.824Z,7.13
2023-04-30T02:54:54.196Z,7.19
2023-04-30T02:55:54.639Z,7.21
2023-04-30T02:56:55.017Z,7.25
2023-04-30T02:57:55.332Z,7.24
2023-04-30T02:58:55.642Z,7.27
2023-04-30T02:59:56.469Z,7.31
2023-04-30T03:00:56.524Z,7.27
2023-04-30T03:01:56.833Z,7.3
2023-04-30T03:02:57.265Z,7.34
2023-04-30T03:03:57.612Z,7.33
2023-04-30T03:04:58.034Z,7.28
2023-04-30T03:05:58.407Z,7.26
2023-04-30T03:06:58.660Z,7.25
2023-04-30T03:07:59.187Z,7.26
2023-04-30T03:09:00.215Z,7.27
2023-04-30T03:09:59.753Z,7.3
2023-04-30T03:11:00.839Z,7.3
2023-04-30T03:12:00.739Z,7.33
2023-04-30T03:13:00.958Z,7.35
2023-04-30T03:14:01.463Z,7.35
2023-04-30T03:15:01.992Z,7.29
2023-04-30T03:16:04.090Z,7.27
2023-04-30T03:17:02.463Z,7.31
2023-04-30T03:18:02.996Z,7.33
2023-04-30T03:19:03.466Z,7.32
2023-04-30T03:20:04.278Z,7.32
2023-04-30T03:21:04.528Z,7.32
2023-04-30T03:22:04.656Z,7.33
2023-04-30T03:23:04.905Z,7.32
2023-04-30T03:24:05.949Z,7.31
2023-04-30T03:25:06.874Z,7.29
2023-04-30T03:26:06.288Z,7.27
2023-04-30T03:27:06.314Z,7.27
2023-04-30T03:28:06.886Z,7.25
2023-04-30T03:29:07.210Z,7.27
2023-04-30T03:30:08.545Z,7.32
2023-04-30T03:31:08.194Z,7.31
2023-04-30T03:32:08.349Z,7.34
2023-04-30T03:33:08.862Z,7.34
2023-04-30T03:34:09.602Z,7.34
2023-04-30T03:35:09.924Z,7.33
2023-04-30T03:36:10.118Z,7.28
2023-04-30T03:37:10.447Z,7.26
2023-04-30T03:38:10.757Z,7.23
2023-04-30T03:39:11.168Z,7.22
2023-04-30T03:40:12.242Z,7.25
2023-04-30T03:41:12.429Z,7.27
2023-04-30T03:42:12.779Z,7.28
2023-04-30T03:43:13.267Z,7.28
2023-04-30T03:44:13.546Z,7.29
2023-04-30T03:45:14.068Z,7.34
2023-04-30T03:46:14.517Z,7.36
2023-04-30T03:47:14.913Z,7.3
2023-04-30T03:48:15.171Z,7.29
2023-04-30T03:49:16.357Z,7.28
2023-04-30T03:50:18.203Z,7.32
2023-04-30T03:51:16.813Z,7.34
2023-04-30T03:52:16.786Z,7.34
2023-04-30T03:53:17.300Z,7.32
2023-04-30T03:54:17.350Z,7.28
2023-04-30T03:55:18.032Z,7.23
2023-04-30T03:56:18.351Z,7.24
2023-04-30T03:57:18.750Z,7.24
2023-04-30T03:58:19.282Z,7.29
2023-04-30T03:59:19.488Z,7.3
2023-04-30T04:00:20.219Z,7.36
2023-04-30T04:01:20.433Z,7.39
2023-04-30T04:02:20.770Z,7.45
2023-04-30T04:03:21.364Z,7.48
2023-04-30T04:04:21.408Z,7.44
2023-04-30T04:05:21.893Z,7.42
2023-04-30T04:06:22.880Z,7.4
2023-04-30T04:07:23.231Z,7.34
2023-04-30T04:08:23.534Z,7.31
2023-04-30T04:09:23.969Z,7.4
2023-04-30T04:10:24.390Z,7.4
2023-04-30T04:11:24.804Z,7.38
2023-04-30T04:12:25.156Z,7.38
2023-04-30T04:13:25.686Z,7.39
2023-04-30T04:14:25.794Z,7.38
2023-04-30T04:15:26.076Z,7.36
2023-04-30T04:16:26.842Z,7.36
2023-04-30T04:17:27.335Z,7.39
2023-04-30T04:18:27.292Z,7.35
2023-04-30T04:19:28.432Z,7.3
2023-04-30T04:20:28.124Z,7.21
2023-04-30T04:21:28.650Z,7.14
2023-04-30T04:22:28.856Z,7.22
2023-04-30T04:23:29.373Z,7.29
2023-04-30T04:24:29.798Z,7.35
2023-04-30T04:25:30.221Z,7.35
2023-04-30T04:26:30.530Z,7.34
2023-04-30T04:27:30.847Z,7.32
2023-04-30T04:28:31.267Z,7.31
2023-04-30T04:29:31.723Z,7.32
2023-04-30T04:30:31.930Z,7.31
2023-04-30T04:31:33.250Z,7.29
2023-04-30T04:32:32.938Z,7.27
2023-04-30T04:33:33.246Z,7.25
2023-04-30T04:34:33.863Z,7.21
2023-04-30T04:35:34.059Z,7.14
2023-04-30T04:36:34.578Z,7.13
2023-04-30T04:37:35.198Z,7.04
2023-04-30T04:38:35.050Z,7.06
2023-04-30T04:39:35.525Z,7.01
2023-04-30T04:40:35.833Z,6.95
2023-04-30T04:41:36.301Z,6.89
2023-04-30T04:42:36.685Z,6.91
2023-04-30T04:43:37.152Z,6.93
2023-04-30T04:44:37.492Z,6.91
2023-04-30T04:45:37.920Z,6.87
2023-04-30T04:46:38.504Z,6.75
2023-04-30T04:47:38.621Z,6.69
2023-04-30T04:48:38.981Z,6.64
2023-04-30T04:49:40.152Z,6.62
2023-04-30T04:50:39.897Z,6.46
2023-04-30T04:51:40.228Z,6.46
2023-04-30T04:52:40.579Z,6.35
2023-04-30T04:53:41.036Z,6.4
2023-04-30T04:54:41.381Z,6.25
2023-04-30T04:55:41.848Z,6.16
2023-04-30T04:56:42.189Z,6.06
2023-04-30T04:57:42.615Z,5.98
2023-04-30T04:58:43.085Z,5.99
2023-04-30T04:59:43.339Z,6
2023-04-30T05:00:44.461Z,5.96
2023-04-30T05:01:44.094Z,5.88
2023-04-30T05:02:44.549Z,5.85
2023-04-30T05:03:44.954Z,5.82
2023-04-30T05:04:45.715Z,5.79
2023-04-30T05:05:45.617Z,5.81
2023-04-30T05:06:46.006Z,5.73
2023-04-30T05:07:46.359Z,5.77
2023-04-30T05:08:46.676Z,5.74
2023-04-30T05:09:47.297Z,5.8
2023-04-30T05:10:47.445Z,5.73
2023-04-30T05:11:47.811Z,5.6
2023-04-30T05:12:48.237Z,5.57
2023-04-30T05:13:48.507Z,5.63
2023-04-30T05:14:49.111Z,5.61
2023-04-30T05:15:53.500Z,5.64
2023-04-30T05:16:50.924Z,5.57
2023-04-30T05:17:51.396Z,5.45
2023-04-30T05:18:51.652Z,5.42
2023-04-30T05:19:53.745Z,5.46
2023-04-30T05:20:52.475Z,5.55
2023-04-30T05:21:52.804Z,5.53
2023-04-30T05:22:53.221Z,5.52
2023-04-30T05:23:53.469Z,5.54
2023-04-30T05:24:54.062Z,5.49
2023-04-30T05:25:54.153Z,5.51
2023-04-30T05:26:54.688Z,5.55
2023-04-30T05:27:55.098Z,5.51
2023-04-30T05:28:55.255Z,5.48
2023-04-30T05:29:56.106Z,5.37
2023-04-30T05:30:56.018Z,5.37
2023-04-30T05:31:56.669Z,5.4
2023-04-30T05:32:57.874Z,5.41
2023-04-30T05:33:57.276Z,5.42
2023-04-30T05:34:57.685Z,5.38
2023-04-30T05:35:58.016Z,5.46
2023-04-30T05:36:58.438Z,5.48
2023-04-30T05:37:58.642Z,5.42
2023-04-30T05:38:59.120Z,5.41
2023-04-30T05:39:59.789Z,5.48
2023-04-30T05:41:00.612Z,5.5
2023-04-30T05:42:00.304Z,5.4
2023-04-30T05:43:00.626Z,5.44
2023-04-30T05:44:01.038Z,5.44
2023-04-30T05:45:02.165Z,5.49
2023-04-30T05:46:01.775Z,5.54
2023-04-30T05:47:02.175Z,5.46
2023-04-30T05:48:02.540Z,5.54
2023-04-30T05:49:03.117Z,5.52
2023-04-30T05:50:04.652Z,5.53
2023-04-30T05:51:03.760Z,5.43
2023-04-30T05:52:04.570Z,5.53
2023-04-30T05:53:04.284Z,5.53
2023-04-30T05:54:04.678Z,5.55
2023-04-30T05:55:05.765Z,5.48
2023-04-30T05:56:05.972Z,5.47
2023-04-30T05:57:05.822Z,5.44
2023-04-30T05:58:06.258Z,5.39
2023-04-30T05:59:06.558Z,5.39
2023-04-30T06:00:08.144Z,5.4
2023-04-30T06:01:07.287Z,5.39
2023-04-30T06:02:07.844Z,5.4
2023-04-30T06:03:08.100Z,5.47
2023-04-30T06:04:08.447Z,5.33
2023-04-30T06:05:09.525Z,5.39
2023-04-30T06:06:09.415Z,5.38
2023-04-30T06:07:09.513Z,5.36
2023-04-30T06:08:09.816Z,5.27
2023-04-30T06:09:10.340Z,5.27
2023-04-30T06:10:11.085Z,5.28
2023-04-30T06:11:12.483Z,5.36
2023-04-30T06:12:11.610Z,5.31
2023-04-30T06:13:11.988Z,5.35
2023-04-30T06:14:12.201Z,5.38
2023-04-30T06:15:12.622Z,5.38
2023-04-30T06:16:13.046Z,5.44
2023-04-30T06:17:13.333Z,5.46
2023-04-30T06:18:13.760Z,5.45
2023-04-30T06:19:13.967Z,5.48
2023-04-30T06:20:14.520Z,5.55
2023-04-30T06:21:14.805Z,5.56
2023-04-30T06:22:15.106Z,5.54
2023-04-30T06:23:15.491Z,5.53
2023-04-30T06:24:15.819Z,5.56
2023-04-30T06:25:16.367Z,5.43
2023-04-30T06:26:16.563Z,5.43
2023-04-30T06:27:17.035Z,5.46
2023-04-30T06:28:17.205Z,5.47
2023-04-30T06:29:17.508Z,5.48
2023-04-30T06:30:18.202Z,5.46
2023-04-30T06:31:18.485Z,5.47
2023-04-30T06:32:19.375Z,5.54
2023-04-30T06:33:19.083Z,5.53
2023-04-30T06:34:20.042Z,5.53
2023-04-30T06:35:19.901Z,5.54
2023-04-30T06:36:20.324Z,5.58
2023-04-30T06:37:20.658Z,5.58
2023-04-30T06:38:21.145Z,5.66
2023-04-30T06:39:21.269Z,5.58
2023-04-30T06:40:21.798Z,5.57
2023-04-30T06:41:21.936Z,5.62
2023-04-30T06:42:22.468Z,5.58
2023-04-30T06:43:23.168Z,5.58
2023-04-30T06:44:23.343Z,5.65
2023-04-30T06:45:23.765Z,5.68
2023-04-30T06:46:23.984Z,5.65
2023-04-30T06:47:24.414Z,5.64
2023-04-30T06:48:24.813Z,5.6
2023-04-30T06:49:25.116Z,5.57
2023-04-30T06:50:25.731Z,5.48
2023-04-30T06:51:25.801Z,5.53
2023-04-30T06:52:26.287Z,5.56
2023-04-30T06:53:26.473Z,5.55
2023-04-30T06:54:26.856Z,5.51
2023-04-30T06:55:27.516Z,5.47
2023-04-30T06:56:27.726Z,5.53
2023-04-30T06:57:28.146Z,5.51
2023-04-30T06:58:28.446Z,5.55
2023-04-30T06:59:29.895Z,5.49
2023-04-30T07:00:29.270Z,5.56
2023-04-30T07:01:29.645Z,5.5
2023-04-30T07:02:30.124Z,5.46
2023-04-30T07:03:30.242Z,5.49
2023-04-30T07:04:30.697Z,5.46
2023-04-30T07:05:31.466Z,5.45
2023-04-30T07:06:31.435Z,5.38
2023-04-30T07:07:31.888Z,5.39
2023-04-30T07:08:32.097Z,5.46
2023-04-30T07:09:32.641Z,5.47
2023-04-30T07:10:32.880Z,5.55
2023-04-30T07:11:33.207Z,5.59
2023-04-30T07:12:33.681Z,5.62
2023-04-30T07:13:34.085Z,5.62
2023-04-30T07:14:34.596Z,5.7
2023-04-30T07:15:34.974Z,5.82
2023-04-30T07:16:35.235Z,5.94
2023-04-30T07:17:35.560Z,6.05
2023-04-30T07:18:35.963Z,6.16
2023-04-30T07:19:36.283Z,6.22
2023-04-30T07:20:36.599Z,6.28
2023-04-30T07:21:37.009Z,6.22
2023-04-30T07:22:37.352Z,6.28
2023-04-30T07:23:37.726Z,6.3
2023-04-30T07:24:38.248Z,6.4
2023-04-30T07:25:38.675Z,6.35
2023-04-30T07:26:38.872Z,6.25
2023-04-30T07:27:39.596Z,6.38
2023-04-30T07:28:39.703Z,6.47
2023-04-30T07:29:40.126Z,6.29
2023-04-30T07:30:40.871Z,6.29
2023-04-30T07:31:40.870Z,6.38
2023-04-30T07:32:42.196Z,6.42
2023-04-30T07:33:41.575Z,6.36
2023-04-30T07:34:42.316Z,6.39
2023-04-30T07:35:42.420Z,6.49
2023-04-30T07:36:42.591Z,6.56
2023-04-30T07:37:43.163Z,6.68
2023-04-30T07:38:43.608Z,6.72
2023-04-30T07:39:43.779Z,6.73
2023-04-30T07:40:44.291Z,6.8
2023-04-30T07:41:44.499Z,6.9
2023-04-30T07:42:45.136Z,6.77
2023-04-30T07:43:45.403Z,6.94
2023-04-30T07:44:45.856Z,7.09
2023-04-30T07:45:46.407Z,7.13
2023-04-30T07:46:46.588Z,7
2023-04-30T07:47:46.994Z,7.07
2023-04-30T07:48:47.315Z,7.23
2023-04-30T07:49:48.021Z,7.2
2023-04-30T07:50:50.561Z,7.25
2023-04-30T07:51:48.875Z,7.46
2023-04-30T07:52:52.056Z,7.52
2023-04-30T07:53:49.507Z,7.66
2023-04-30T07:54:49.872Z,7.61
2023-04-30T07:55:50.332Z,7.59
2023-04-30T07:56:50.747Z,7.32
2023-04-30T07:57:51.164Z,7.35
2023-04-30T07:58:51.580Z,7.5
2023-04-30T07:59:53.173Z,7.38
2023-04-30T08:00:52.257Z,7.5
2023-04-30T08:01:52.739Z,7.46
2023-04-30T08:02:53.264Z,7.44
2023-04-30T08:03:53.410Z,7.24
2023-04-30T08:04:53.721Z,7.36
2023-04-30T08:05:54.319Z,7.43
2023-04-30T08:06:54.678Z,7.4
2023-04-30T08:07:55.074Z,7.42
2023-04-30T08:08:55.336Z,7.44
2023-04-30T08:09:56.012Z,7.24
2023-04-30T08:10:56.273Z,7.27
2023-04-30T08:11:56.784Z,7.24
2023-04-30T08:12:56.958Z,7.26
2023-04-30T08:13:57.411Z,7.21
2023-04-30T08:15:02.904Z,7.37
2023-04-30T08:16:00.229Z,7.52
2023-04-30T08:17:00.800Z,7.65
2023-04-30T08:18:01.110Z,7.58
2023-04-30T08:19:01.400Z,7.58
2023-04-30T08:20:03.916Z,7.45
2023-04-30T08:21:02.393Z,7.55
2023-04-30T08:22:02.697Z,7.63
2023-04-30T08:23:03.077Z,7.8
2023-04-30T08:24:03.728Z,7.9
2023-04-30T08:25:04.350Z,8.14
2023-04-30T08:26:04.426Z,8.13
2023-04-30T08:27:04.833Z,8.33
2023-04-30T08:28:06.431Z,8.41
2023-04-30T08:29:05.511Z,8.59
2023-04-30T08:30:07.560Z,8.6
2023-04-30T08:31:06.279Z,8.42
2023-04-30T08:32:06.813Z,8.37
2023-04-30T08:33:07.809Z,8
2023-04-30T08:34:07.384Z,7.87
2023-04-30T08:35:09.038Z,7.95
2023-04-30T08:36:08.320Z,7.91
2023-04-30T08:37:08.522Z,8.12
2023-04-30T08:38:09.044Z,8.23
2023-04-30T08:39:09.464Z,8.41
2023-04-30T08:40:10.597Z,8.32
2023-04-30T08:41:12.897Z,8.33
2023-04-30T08:42:14.707Z,8.43
2023-04-30T08:43:13.011Z,8.28
2023-04-30T08:44:12.457Z,8.44
2023-04-30T08:45:13.280Z,8.72
2023-04-30T08:46:14.459Z,8.83
2023-04-30T08:47:14.669Z,8.63
2023-04-30T08:48:15.976Z,8.54
2023-04-30T08:49:14.394Z,8.55
2023-04-30T08:50:15.165Z,8.67
2023-04-30T08:51:16.154Z,8.84
2023-04-30T08:52:16.095Z,8.75
2023-04-30T08:53:17.846Z,8.56
2023-04-30T08:54:18.014Z,8.52
2023-04-30T08:55:16.982Z,8.57
2023-04-30T08:56:17.565Z,8.67
2023-04-30T08:57:18.657Z,8.7
2023-04-30T08:58:18.185Z,8.56
2023-04-30T08:59:18.604Z,8.56
2023-04-30T09:00:19.270Z,8.41
2023-04-30T09:01:20.361Z,8.4
2023-04-30T09:02:20.139Z,8.47
2023-04-30T09:03:20.349Z,8.64
2023-04-30T09:04:20.692Z,8.1
2023-04-30T09:05:20.974Z,8.19
2023-04-30T09:06:21.460Z,8.42
2023-04-30T09:07:24.387Z,8.51
2023-04-30T09:10:25.438Z,8.96
2023-04-30T09:12:27.616Z,9.11
2023-04-30T09:14:33.035Z,9.15
2023-04-30T09:15:35.129Z,9.21
2023-04-30T09:17:37.074Z,9.01
2023-04-30T09:18:40.091Z,9
2023-04-30T09:19:37.933Z,8.9
2023-04-30T09:20:38.919Z,8.79
2023-04-30T09:21:38.705Z,8.81
2023-04-30T09:22:40.884Z,8.84
2023-04-30T09:24:48.870Z,8.74
2023-04-30T09:25:46.361Z,8.8
2023-04-30T09:26:47.660Z,8.7
2023-04-30T09:27:47.249Z,8.58
2023-04-30T09:28:59.950Z,8.51
2023-04-30T09:29:52.716Z,8.67
2023-04-30T09:30:53.282Z,8.62
2023-04-30T09:32:55.892Z,9.1
2023-04-30T09:33:55.595Z,9.25
2023-04-30T09:34:56.322Z,9.34
2023-04-30T09:35:56.397Z,9.75
2023-04-30T09:36:57.873Z,10.04
2023-04-30T09:37:59.500Z,9.84
2023-04-30T09:39:08.925Z,9.49
2023-04-30T09:40:03.211Z,9.67
2023-04-30T09:41:02.824Z,9.94
2023-04-30T09:42:12.446Z,9.85
2023-04-30T09:43:05.269Z,9.53
2023-04-30T09:44:05.579Z,9.5
2023-04-30T09:45:06.513Z,9.62
2023-04-30T09:46:06.527Z,10.03
2023-04-30T09:47:12.568Z,10.43
2023-04-30T09:48:16.986Z,10.46
2023-04-30T09:49:19.753Z,10.15
2023-04-30T09:50:18.965Z,10.09
2023-04-30T09:51:18.120Z,10.14
2023-04-30T09:52:19.632Z,10.21
2023-04-30T09:53:19.621Z,10.26
2023-04-30T09:54:20.961Z,10.45
2023-04-30T09:55:21.964Z,10.47
2023-04-30T09:56:24.919Z,10.52
2023-04-30T09:57:24.779Z,10.2
2023-04-30T09:58:26.282Z,9.95
2023-04-30T09:59:31.846Z,9.49
2023-04-30T10:00:24.734Z,9.68
2023-04-30T10:01:29.133Z,10.01
2023-04-30T10:02:27.947Z,10.18
2023-04-30T10:03:27.672Z,10.13
2023-04-30T10:04:31.217Z,10.08
2023-04-30T10:05:28.872Z,10
2023-04-30T10:06:29.130Z,9.88
2023-04-30T10:07:36.626Z,9.69
2023-04-30T10:08:41.073Z,9.87
2023-04-30T10:09:51.014Z,9.97
2023-04-30T10:10:47.436Z,10.12
2023-04-30T10:11:45.799Z,10.13
2023-04-30T10:12:53.122Z,10.21
2023-04-30T10:14:57.807Z,10.21
2023-04-30T10:15:54.242Z,10.39
2023-04-30T10:16:58.830Z,10.85
2023-04-30T10:20:04.300Z,10.69
2023-04-30T10:21:05.113Z,10.86
2023-04-30T10:22:02.692Z,10.85
2023-04-30T10:23:02.979Z,10.49
2023-04-30T10:24:04.926Z,10.61
2023-04-30T10:25:04.546Z,10.4
2023-04-30T10:26:04.533Z,10.3
2023-04-30T10:27:05.167Z,10.04
2023-04-30T10:28:07.514Z,10.17
2023-04-30T10:29:06.940Z,10.23
2023-04-30T10:30:10.090Z,10.21
2023-04-30T10:31:08.461Z,9.85
2023-04-30T10:32:08.655Z,9.74
2023-04-30T10:38:24.441Z,10.36
2023-04-30T10:39:23.640Z,10.68
2023-04-30T10:40:23.063Z,10.74
2023-04-30T10:41:26.250Z,10.89
2023-04-30T10:42:24.091Z,11.13
2023-04-30T10:43:25.644Z,11.4
2023-04-30T10:44:25.865Z,11.41
2023-04-30T10:46:30.528Z,11.26
2023-04-30T10:47:31.474Z,11.57
2023-04-30T10:48:34.471Z,11.7
2023-04-30T10:49:32.045Z,11.42
2023-04-30T10:50:32.753Z,11.47
2023-04-30T10:52:33.585Z,11.27
2023-04-30T10:53:37.128Z,11.28
2023-04-30T10:54:36.425Z,11.06
2023-04-30T10:55:48.552Z,10.86
2023-04-30T10:56:35.917Z,10.86
2023-04-30T10:57:43.901Z,11.22
2023-04-30T10:58:40.577Z,11.43
2023-04-30T10:59:38.244Z,11.34
2023-04-30T11:00:38.757Z,11.59
2023-04-30T11:02:46.682Z,11.98
2023-04-30T11:05:46.572Z,11.42
2023-04-30T11:07:51.359Z,10.9
2023-04-30T11:08:50.170Z,10.71
2023-04-30T11:09:57.190Z,10.61
2023-04-30T11:11:00.451Z,10.45
2023-04-30T11:12:05.352Z,10.37
2023-04-30T11:13:07.104Z,10.44
2023-04-30T11:14:04.645Z,10.55
2023-04-30T11:15:13.838Z,10.82
2023-04-30T11:16:06.585Z,10.91
2023-04-30T11:17:07.429Z,10.82
2023-04-30T11:18:08.758Z,10.75
2023-04-30T11:19:16.925Z,10.76
2023-04-30T11:20:13.200Z,10.88
2023-04-30T11:21:11.168Z,11.08
2023-04-30T11:22:22.919Z,11.43
2023-04-30T11:23:22.089Z,11.56
2023-04-30T11:24:20.222Z,11.35
2023-04-30T11:25:22.305Z,11.39
2023-04-30T11:26:20.398Z,11.57
2023-04-30T11:27:24.498Z,11.64
2023-04-30T11:28:26.921Z,11.72
2023-04-30T11:29:24.876Z,11.47
2023-04-30T11:30:25.238Z,11.04
2023-04-30T11:31:33.598Z,11.04
2023-04-30T11:32:39.032Z,11.2
2023-04-30T11:33:28.437Z,11.18
2023-04-30T11:34:26.898Z,11.16
2023-04-30T11:35:29.267Z,11.29
2023-04-30T11:36:31.629Z,11.15
2023-04-30T11:39:36.943Z,11.59
2023-04-30T11:40:36.060Z,11.91
2023-04-30T11:42:39.258Z,12.41
2023-04-30T11:43:38.430Z,12.37
2023-04-30T11:44:38.893Z,12.37
2023-04-30T11:45:39.790Z,12.31
2023-04-30T11:46:42.396Z,12.28
2023-04-30T11:48:47.177Z,12.31
2023-04-30T11:49:44.847Z,12.57
2023-04-30T11:50:44.979Z,12.58
2023-04-30T11:51:49.589Z,12.71
2023-04-30T11:52:51.186Z,12.96
2023-04-30T11:53:50.205Z,12.52
2023-04-30T11:54:49.045Z,12.1
2023-04-30T11:55:49.456Z,11.78
2023-04-30T11:56:49.989Z,12.23
2023-04-30T11:57:55.452Z,12.11
2023-04-30T11:58:53.581Z,11.83
2023-04-30T11:59:53.562Z,12.09
2023-04-30T12:00:53.895Z,12.04
2023-04-30T12:01:54.396Z,12.09
2023-04-30T12:02:55.824Z,11.94
2023-04-30T12:03:56.786Z,11.88
2023-04-30T12:04:55.666Z,12.08
2023-04-30T12:05:56.031Z,12.22
2023-04-30T12:06:56.395Z,12.18
2023-04-30T12:09:00.526Z,11.72
2023-04-30T12:09:59.316Z,11.87
2023-04-30T12:10:59.690Z,11.75
2023-04-30T12:12:00.121Z,11.68
2023-04-30T12:13:00.378Z,11.78
2023-04-30T12:14:07.196Z,11.69
2023-04-30T12:16:07.753Z,11.44
2023-04-30T12:17:08.347Z,11.38
2023-04-30T12:18:14.462Z,11.16
2023-04-30T12:19:13.012Z,10.94
2023-04-30T12:20:14.298Z,10.98
2023-04-30T12:21:13.800Z,10.86
2023-04-30T12:22:13.289Z,10.9
2023-04-30T12:23:14.113Z,10.92
2023-04-30T12:24:15.266Z,11.25
2023-04-30T12:25:18.023Z,11.47
2023-04-30T12:26:15.684Z,11.31
2023-04-30T12:27:15.979Z,10.99
2023-04-30T12:28:16.352Z,10.88
2023-04-30T12:29:18.930Z,10.96
2023-04-30T12:30:20.817Z,11.05
2023-04-30T12:31:18.607Z,11.18
2023-04-30T12:32:19.486Z,10.85
2023-04-30T12:33:19.289Z,10.85
2023-04-30T12:34:19.519Z,10.78
2023-04-30T12:35:22.284Z,10.8
2023-04-30T12:36:20.869Z,10.81
2023-04-30T12:37:21.179Z,10.88
2023-04-30T12:38:21.184Z,10.85
2023-04-30T12:39:21.649Z,11.07
2023-04-30T12:40:27.174Z,11.38
2023-04-30T12:41:30.522Z,11.5
2023-04-30T12:42:32.671Z,11.4
2023-04-30T12:43:30.063Z,11.22
2023-04-30T12:44:30.610Z,11.28
2023-04-30T12:46:34.900Z,11.1
2023-04-30T12:47:38.953Z,10.87
2023-04-30T12:48:45.425Z,10.96
2023-04-30T12:49:37.937Z,11.06
2023-04-30T12:50:38.560Z,11.06
2023-04-30T12:51:42.468Z,10.91
2023-04-30T12:52:41.034Z,10.64
2023-04-30T12:53:49.274Z,10.53
2023-04-30T12:54:41.725Z,10.53
2023-04-30T12:55:42.128Z,10.81
2023-04-30T12:58:49.925Z,11.24
2023-04-30T12:59:59.975Z,11.41
2023-04-30T13:00:52.669Z,11.64
2023-04-30T13:01:52.916Z,11.38
2023-04-30T13:02:53.367Z,11.25
2023-04-30T13:03:54.157Z,11.06
2023-04-30T13:04:55.251Z,11.07
2023-04-30T13:05:55.001Z,10.97
2023-04-30T13:06:55.520Z,11.16
2023-04-30T13:08:02.425Z,11.23
2023-04-30T13:08:59.771Z,11.25
2023-04-30T13:10:00.410Z,11.61
2023-04-30T13:11:00.705Z,11.89
2023-04-30T13:12:01.317Z,11.95
2023-04-30T13:13:01.754Z,11.48
2023-04-30T13:14:02.062Z,11.73
2023-04-30T13:15:02.581Z,11.83
2023-04-30T13:16:03.165Z,11.81
2023-04-30T13:17:03.351Z,11.6
2023-04-30T13:18:03.885Z,11.55
2023-04-30T13:19:04.139Z,11.38
2023-04-30T13:20:05.550Z,11.31
2023-04-30T13:21:04.864Z,11.16
2023-04-30T13:22:05.319Z,11.22
2023-04-30T13:23:08.670Z,10.97
2023-04-30T13:24:06.632Z,10.97
2023-04-30T13:25:07.350Z,11.02
2023-04-30T13:26:06.997Z,10.64
2023-04-30T13:27:07.399Z,10.78
2023-04-30T13:28:08.102Z,10.72
2023-04-30T13:29:08.509Z,10.64
2023-04-30T13:30:10.797Z,10.48
2023-04-30T13:31:09.267Z,10.4
2023-04-30T13:32:09.643Z,10.46
2023-04-30T13:33:09.982Z,10.74
2023-04-30T13:34:10.487Z,10.81
2023-04-30T13:35:11.834Z,10.65
2023-04-30T13:36:11.340Z,10.39
2023-04-30T13:37:11.733Z,10.32
2023-04-30T13:38:12.157Z,10.46
2023-04-30T13:39:12.485Z,10.28
2023-04-30T13:40:13.087Z,10.18
2023-04-30T13:41:13.611Z,10.05
2023-04-30T13:42:16.544Z,10.24
2023-04-30T13:43:14.194Z,10.27
2023-04-30T13:44:15.577Z,10.12
2023-04-30T13:45:15.273Z,10
2023-04-30T13:46:15.647Z,10.21
2023-04-30T13:47:16.347Z,10.54
2023-04-30T13:48:16.099Z,10.5
2023-04-30T13:49:16.816Z,10.54
2023-04-30T13:50:16.994Z,10.48
2023-04-30T13:51:17.429Z,10.09
2023-04-30T13:52:17.992Z,10
2023-04-30T13:53:18.599Z,10.14
2023-04-30T13:54:18.568Z,10.17
2023-04-30T13:55:19.698Z,10.12
2023-04-30T13:56:19.594Z,10.11
2023-04-30T13:57:19.863Z,10.03
2023-04-30T13:58:20.370Z,10.19
2023-04-30T13:59:21.292Z,10.24
2023-04-30T14:00:21.507Z,10.41
2023-04-30T14:01:21.746Z,10.44
2023-04-30T14:02:21.995Z,10.43
2023-04-30T14:03:22.623Z,10.53
2023-04-30T14:04:22.896Z,10.29
2023-04-30T14:05:23.285Z,10.55
2023-04-30T14:06:23.534Z,10.62
2023-04-30T14:07:24.483Z,10.5
2023-04-30T14:08:24.536Z,10.17
2023-04-30T14:09:24.884Z,10.15
2023-04-30T14:10:25.261Z,10.35
2023-04-30T14:11:26.663Z,10.46
2023-04-30T14:12:25.953Z,10.31
2023-04-30T14:13:26.566Z,10.24
2023-04-30T14:14:26.875Z,10.2
2023-04-30T14:15:27.446Z,10.22
2023-04-30T14:16:27.686Z,10.25
2023-04-30T14:17:28.258Z,10.18
2023-04-30T14:18:28.490Z,10.19
2023-04-30T14:19:29.115Z,10.26
2023-04-30T14:20:29.380Z,10.31
2023-04-30T14:21:29.752Z,10.22
2023-04-30T14:22:30.266Z,10.28
2023-04-30T14:23:30.514Z,10.33
2023-04-30T14:24:31.091Z,10.44
2023-04-30T14:25:31.409Z,10.41
2023-04-30T14:26:31.789Z,10.47
2023-04-30T14:27:32.566Z,10.68
2023-04-30T14:28:32.667Z,10.91